Terminal Aerodrome Forecast
Issued by NWS Albany, NY

Home | Current Version | Previous Version | Text Only | Print | Product List | Glossary On
Versions: 1 2 3 4 5 6 7 8 9 10 11 12 13 14
000
FTUS41 KALY 260524
TAFPOU
TAF
KPOU 260524Z 2606/2706 VRB03KT P6SM BKN050
     FM260800 VRB02KT 6SM BR VCSH SCT020 BKN040
     FM261300 24005KT P6SM BKN050
     FM261600 31008KT P6SM SCT050
     FM262300 35004KT P6SM FEW050 SCT250=

USA.gov is the U.S. government's official web portal to all federal, state and local government web resources and services.